Time;durP1;ratioP1;P1;durP2;ratioP2;P2;SDS_P1;SDS_P2;PMS_P1;PMS_P2;Temp;Humidity;BMP_temperature;BMP_pressure;BME280_temperature;BME280_humidity;BME280_pressure;Samples;Min_cycle;Max_cycle;Signal;HPM_P1;HPM_P2
2022/01/27 00:05:56;;;;;;;30.27;18.60;;;;;;;;;;6226098;23;20167;-66
2022/01/27 00:08:51;;;;;;;34.13;21.07;;;;;;;;;;6216301;23;20168;-67
2022/01/27 00:11:15;;;;;;;33.13;20.53;;;;;;;;;;6215153;23;20180;-68
2022/01/27 00:13:47;;;;;;;28.43;19.67;;;;;;;;;;6216119;23;20492;-68
2022/01/27 00:16:27;;;;;;;52.63;25.37;;;;;;;;;;6216099;23;20196;-67
2022/01/27 00:18:56;;;;;;;45.60;24.97;;;;;;;;;;6216105;23;20175;-67
2022/01/27 00:21:25;;;;;;;42.70;22.67;;;;;;;;;;6215870;23;20191;-67
2022/01/27 00:23:53;;;;;;;36.93;21.07;;;;;;;;;;6215962;23;20180;-67
2022/01/27 00:26:21;;;;;;;41.33;22.00;;;;;;;;;;6214067;23;20203;-66
2022/01/27 00:28:50;;;;;;;46.73;23.27;;;;;;;;;;6215807;23;20616;-67
2022/01/27 00:31:19;;;;;;;50.27;26.20;;;;;;;;;;6216243;23;20254;-67
2022/01/27 00:33:48;;;;;;;59.03;28.97;;;;;;;;;;6215934;23;20189;-68
2022/01/27 00:36:16;;;;;;;61.33;28.10;;;;;;;;;;6215804;23;20235;-67
2022/01/27 00:38:44;;;;;;;61.47;28.60;;;;;;;;;;6215978;23;20552;-68
2022/01/27 00:41:13;;;;;;;44.50;25.20;;;;;;;;;;6215951;23;20215;-67
2022/01/27 00:43:43;;;;;;;44.90;24.80;;;;;;;;;;6215682;23;20184;-67
2022/01/27 00:46:15;;;;;;;41.57;23.23;;;;;;;;;;6215947;23;20180;-67
2022/01/27 00:48:44;;;;;;;53.80;25.93;;;;;;;;;;6215926;23;20231;-67
2022/01/27 00:51:15;;;;;;;49.27;24.73;;;;;;;;;;6215884;23;20184;-67
2022/01/27 00:56:49;;;;;;;43.30;23.93;;;;;;;;;;6215784;23;20210;-67
2022/01/27 01:01:40;;;;;;;34.67;21.83;;;;;;;;;;6217947;23;20213;-68
2022/01/27 01:04:09;;;;;;;49.90;24.77;;;;;;;;;;6227536;23;20509;-68
2022/01/27 01:06:43;;;;;;;36.73;20.83;;;;;;;;;;6217133;23;20532;-67
2022/01/27 01:17:15;;;;;;;30.70;21.10;;;;;;;;;;6227487;23;20176;-67
2022/01/27 01:20:22;;;;;;;40.47;20.40;;;;;;;;;;6216159;23;20172;-68
2022/01/27 01:30:57;;;;;;;30.87;19.83;;;;;;;;;;6193720;23;20184;-67
2022/01/27 01:33:32;;;;;;;29.60;20.00;;;;;;;;;;6217693;23;20174;-68
2022/01/27 01:36:05;;;;;;;44.60;22.67;;;;;;;;;;6217386;23;20279;-67
2022/01/27 01:38:32;;;;;;;39.10;21.37;;;;;;;;;;6227303;23;20253;-67
2022/01/27 01:41:14;;;;;;;41.67;22.10;;;;;;;;;;6217085;23;20168;-68
2022/01/27 01:43:42;;;;;;;32.47;21.43;;;;;;;;;;6216969;23;20203;-67
2022/01/27 01:46:09;;;;;;;44.90;25.13;;;;;;;;;;6217442;23;20180;-67
2022/01/27 01:48:37;;;;;;;47.23;25.27;;;;;;;;;;6217318;23;20250;-67
2022/01/27 01:51:05;;;;;;;41.93;22.50;;;;;;;;;;6216914;23;20728;-67
2022/01/27 01:53:32;;;;;;;36.87;22.23;;;;;;;;;;6216773;23;20525;-67
2022/01/27 01:56:00;;;;;;;39.63;22.97;;;;;;;;;;6217032;23;20204;-67
2022/01/27 01:58:27;;;;;;;34.60;20.83;;;;;;;;;;6217295;23;20234;-67
2022/01/27 02:00:54;;;;;;;34.87;20.33;;;;;;;;;;6241125;23;20211;-67
2022/01/27 02:03:22;;;;;;;52.63;25.57;;;;;;;;;;6217155;23;20186;-67
2022/01/27 02:05:54;;;;;;;41.33;23.87;;;;;;;;;;6216809;23;20556;-67
2022/01/27 02:19:17;;;;;;;40.73;23.13;;;;;;;;;;6215923;23;20169;-67
2022/01/27 02:21:50;;;;;;;49.93;25.40;;;;;;;;;;6216851;23;20180;-68
2022/01/27 02:24:19;;;;;;;44.70;23.70;;;;;;;;;;6226291;23;20206;-67
2022/01/27 02:26:49;;;;;;;37.43;23.63;;;;;;;;;;6250444;23;20175;-67
2022/01/27 02:29:17;;;;;;;43.47;24.17;;;;;;;;;;6216745;23;20180;-67
2022/01/27 02:31:46;;;;;;;43.40;24.33;;;;;;;;;;6216977;23;20184;-67
2022/01/27 02:34:14;;;;;;;55.43;26.87;;;;;;;;;;6216702;23;20267;-67
2022/01/27 02:36:41;;;;;;;65.30;26.90;;;;;;;;;;6216822;23;20206;-67
2022/01/27 02:39:10;;;;;;;46.10;25.00;;;;;;;;;;6216869;23;20259;-67
2022/01/27 02:41:51;;;;;;;79.03;33.13;;;;;;;;;;6216401;23;20515;-67
2022/01/27 02:44:34;;;;;;;56.17;26.80;;;;;;;;;;6216706;23;20168;-67
2022/01/27 02:47:02;;;;;;;36.47;22.83;;;;;;;;;;6225285;23;20160;-67
2022/01/27 02:49:29;;;;;;;63.17;27.47;;;;;;;;;;6217027;23;20176;-67
2022/01/27 02:51:56;;;;;;;42.40;23.53;;;;;;;;;;6216807;23;20187;-67
2022/01/27 02:54:24;;;;;;;42.63;23.20;;;;;;;;;;6216362;23;20630;-67
2022/01/27 02:56:51;;;;;;;40.67;22.97;;;;;;;;;;6216497;23;20218;-67
2022/01/27 02:59:20;;;;;;;40.50;22.50;;;;;;;;;;6216400;23;20179;-67
2022/01/27 03:01:48;;;;;;;43.63;23.63;;;;;;;;;;6216786;23;20190;-67
2022/01/27 03:04:18;;;;;;;53.17;25.77;;;;;;;;;;6216831;23;20599;-67
2022/01/27 03:06:47;;;;;;;61.00;26.50;;;;;;;;;;6226495;23;20492;-67
2022/01/27 03:09:14;;;;;;;46.50;25.50;;;;;;;;;;6216669;23;20180;-67
2022/01/27 03:11:48;;;;;;;50.50;23.90;;;;;;;;;;6216226;23;20501;-67
2022/01/27 03:14:18;;;;;;;48.60;24.77;;;;;;;;;;6216754;23;20168;-67
2022/01/27 03:16:47;;;;;;;46.50;24.60;;;;;;;;;;6226229;23;20631;-67
2022/01/27 03:19:14;;;;;;;46.40;25.10;;;;;;;;;;6215011;23;20255;-67
2022/01/27 03:21:41;;;;;;;64.20;27.50;;;;;;;;;;6216403;23;20187;-67
2022/01/27 03:24:09;;;;;;;53.60;25.53;;;;;;;;;;6216402;23;20180;-67
2022/01/27 03:26:36;;;;;;;53.93;26.07;;;;;;;;;;6215987;23;20283;-67
2022/01/27 03:29:03;;;;;;;45.10;25.67;;;;;;;;;;6216500;23;20236;-67
2022/01/27 03:31:31;;;;;;;58.33;27.63;;;;;;;;;;6216522;23;20255;-67
2022/01/27 03:33:58;;;;;;;57.33;27.17;;;;;;;;;;6215902;23;20623;-67
2022/01/27 03:36:26;;;;;;;52.47;25.47;;;;;;;;;;6216267;23;20215;-67
2022/01/27 03:38:53;;;;;;;61.13;26.90;;;;;;;;;;6216371;23;20184;-66
2022/01/27 03:41:22;;;;;;;55.13;28.13;;;;;;;;;;6216431;23;20214;-67
2022/01/27 03:43:51;;;;;;;57.73;27.60;;;;;;;;;;6216293;23;20535;-67
2022/01/27 03:46:18;;;;;;;57.87;27.27;;;;;;;;;;6216351;23;20179;-67
2022/01/27 03:48:46;;;;;;;47.70;28.77;;;;;;;;;;6216129;23;20259;-67
2022/01/27 03:51:13;;;;;;;51.13;27.00;;;;;;;;;;6216288;23;20180;-67
2022/01/27 03:53:41;;;;;;;45.27;25.60;;;;;;;;;;6216179;23;20199;-67
2022/01/27 03:56:08;;;;;;;45.20;23.37;;;;;;;;;;6214650;23;20208;-67
2022/01/27 03:58:35;;;;;;;42.47;24.17;;;;;;;;;;6216427;23;20230;-67
2022/01/27 04:01:04;;;;;;;45.17;24.77;;;;;;;;;;6216034;23;20180;-67
2022/01/27 04:03:36;;;;;;;41.27;23.80;;;;;;;;;;6216222;23;20212;-67
2022/01/27 04:06:09;;;;;;;55.03;26.67;;;;;;;;;;6216385;23;20239;-67
2022/01/27 04:08:38;;;;;;;65.43;27.80;;;;;;;;;;6226036;23;20174;-66
2022/01/27 04:11:06;;;;;;;46.77;25.87;;;;;;;;;;6216446;23;20302;-67
2022/01/27 04:13:33;;;;;;;43.67;24.57;;;;;;;;;;6216268;23;20180;-67
2022/01/27 04:16:01;;;;;;;47.97;24.00;;;;;;;;;;6216039;23;20230;-67
2022/01/27 04:18:28;;;;;;;42.77;23.87;;;;;;;;;;6215992;23;20214;-67
2022/01/27 04:20:56;;;;;;;48.53;25.97;;;;;;;;;;6215703;23;20588;-67
2022/01/27 04:23:24;;;;;;;77.30;31.50;;;;;;;;;;6216121;23;20180;-67
2022/01/27 04:25:52;;;;;;;64.27;28.67;;;;;;;;;;6215614;23;20208;-67
2022/01/27 04:28:25;;;;;;;53.47;26.77;;;;;;;;;;6215931;23;20180;-66
2022/01/27 04:30:55;;;;;;;104.23;40.37;;;;;;;;;;6216083;23;20195;-67
2022/01/27 04:33:30;;;;;;;58.03;27.70;;;;;;;;;;6215802;23;20618;-67
2022/01/27 04:36:01;;;;;;;57.07;26.63;;;;;;;;;;6217878;23;20196;-67
2022/01/27 04:38:35;;;;;;;73.40;30.77;;;;;;;;;;6217657;23;20172;-67
2022/01/27 04:46:07;;;;;;;73.40;32.23;;;;;;;;;;6217765;23;20667;-67
2022/01/27 04:48:56;;;;;;;84.27;37.60;;;;;;;;;;6217878;23;20250;-67
2022/01/27 04:51:24;;;;;;;59.80;29.67;;;;;;;;;;6217833;23;20247;-67
2022/01/27 04:54:07;;;;;;;65.27;28.33;;;;;;;;;;6217698;23;20180;-67
2022/01/27 04:56:37;;;;;;;59.73;28.77;;;;;;;;;;6217445;23;20330;-66
2022/01/27 04:59:12;;;;;;;61.87;28.90;;;;;;;;;;6227553;23;20573;-66
2022/01/27 05:01:45;;;;;;;55.83;28.00;;;;;;;;;;6226053;23;20179;-66
2022/01/27 05:04:17;;;;;;;61.03;27.80;;;;;;;;;;6219053;23;20250;-66
2022/01/27 05:06:45;;;;;;;64.40;28.07;;;;;;;;;;6217526;23;20208;-65
2022/01/27 05:09:12;;;;;;;86.83;33.93;;;;;;;;;;6214475;23;20266;-66
2022/01/27 05:12:31;;;;;;;67.73;30.83;;;;;;;;;;6215869;23;20275;-66
2022/01/27 05:14:30;;;;;;;87.97;31.10;;;;;;;;;;6211368;23;20246;-66
2022/01/27 05:16:58;;;;;;;69.40;29.23;;;;;;;;;;6215609;23;20222;-66
2022/01/27 05:19:25;;;;;;;85.70;31.23;;;;;;;;;;6215930;23;20204;-66
2022/01/27 05:21:52;;;;;;;73.70;30.90;;;;;;;;;;6217106;23;20228;-66
2022/01/27 05:24:21;;;;;;;102.37;33.73;;;;;;;;;;6216487;23;20200;-67
2022/01/27 05:26:48;;;;;;;87.73;31.97;;;;;;;;;;6216992;23;20233;-66
2022/01/27 05:29:15;;;;;;;97.30;33.63;;;;;;;;;;6217021;23;20576;-66
2022/01/27 05:31:46;;;;;;;79.47;28.73;;;;;;;;;;6217197;23;20208;-66
2022/01/27 05:34:13;;;;;;;83.47;30.43;;;;;;;;;;6217512;23;20210;-65
2022/01/27 05:36:40;;;;;;;69.27;28.00;;;;;;;;;;6216622;23;20216;-66
2022/01/27 05:39:08;;;;;;;67.73;27.43;;;;;;;;;;6216607;23;20502;-67
2022/01/27 05:41:35;;;;;;;74.07;28.10;;;;;;;;;;6216100;23;20211;-67
2022/01/27 05:44:02;;;;;;;73.20;27.87;;;;;;;;;;6216293;23;20685;-68
2022/01/27 05:46:30;;;;;;;70.40;28.23;;;;;;;;;;6215179;23;20210;-68
2022/01/27 05:48:57;;;;;;;65.63;27.83;;;;;;;;;;6215979;23;20283;-67
2022/01/27 05:51:24;;;;;;;78.17;31.63;;;;;;;;;;6216352;23;20671;-72
2022/01/27 05:53:52;;;;;;;64.53;27.00;;;;;;;;;;6216528;23;20279;-65
2022/01/27 05:56:19;;;;;;;72.20;29.53;;;;;;;;;;6216006;23;20212;-66
2022/01/27 05:58:46;;;;;;;81.20;30.63;;;;;;;;;;6216490;23;20211;-67
2022/01/27 06:01:13;;;;;;;74.90;29.20;;;;;;;;;;6216177;23;20211;-68
2022/01/27 06:03:42;;;;;;;78.67;30.87;;;;;;;;;;6215819;23;20246;-69
2022/01/27 06:06:09;;;;;;;81.90;30.60;;;;;;;;;;6215827;23;20588;-63
2022/01/27 06:08:37;;;;;;;82.33;29.17;;;;;;;;;;6216426;23;20212;-65
2022/01/27 06:11:04;;;;;;;86.10;32.73;;;;;;;;;;6216025;23;20215;-68
2022/01/27 06:13:31;;;;;;;119.33;39.53;;;;;;;;;;6214894;23;20329;-65
2022/01/27 06:15:58;;;;;;;95.73;36.50;;;;;;;;;;6216203;23;20204;-72
2022/01/27 06:18:26;;;;;;;91.73;31.60;;;;;;;;;;6215501;23;20204;-69
2022/01/27 06:20:55;;;;;;;109.60;36.23;;;;;;;;;;6215951;23;20276;-69
2022/01/27 06:23:22;;;;;;;103.80;34.43;;;;;;;;;;6216364;23;20187;-69
2022/01/27 06:25:49;;;;;;;102.27;34.47;;;;;;;;;;6214915;23;20262;-66
2022/01/27 06:28:16;;;;;;;116.63;36.97;;;;;;;;;;6215847;23;20190;-69
2022/01/27 06:30:44;;;;;;;109.13;35.90;;;;;;;;;;6216480;23;20703;-69
2022/01/27 06:33:12;;;;;;;135.23;41.37;;;;;;;;;;6216547;23;20179;-69
2022/01/27 06:35:39;;;;;;;149.73;44.17;;;;;;;;;;6216548;23;20215;-67
2022/01/27 06:38:07;;;;;;;83.17;30.93;;;;;;;;;;6216440;23;20254;-69
2022/01/27 06:40:34;;;;;;;108.57;37.70;;;;;;;;;;6216442;23;20179;-69
2022/01/27 06:43:02;;;;;;;108.87;38.43;;;;;;;;;;6216527;23;20599;-68
2022/01/27 06:45:29;;;;;;;91.97;33.83;;;;;;;;;;6216083;23;20623;-69
2022/01/27 06:47:56;;;;;;;83.07;32.20;;;;;;;;;;6216209;23;20501;-69
2022/01/27 06:50:23;;;;;;;87.90;34.00;;;;;;;;;;6216435;23;20180;-68
2022/01/27 06:52:51;;;;;;;75.17;31.57;;;;;;;;;;6215073;23;20255;-69
2022/01/27 06:55:20;;;;;;;135.20;45.33;;;;;;;;;;6216818;23;20504;-67
2022/01/27 06:57:49;;;;;;;106.80;37.53;;;;;;;;;;6216389;23;20211;-69
2022/01/27 07:00:17;;;;;;;91.27;42.23;;;;;;;;;;6216747;23;20237;-69
2022/01/27 07:02:44;;;;;;;109.30;38.63;;;;;;;;;;6216575;23;20180;-69
2022/01/27 07:05:15;;;;;;;72.80;31.07;;;;;;;;;;6216549;23;20180;-69
2022/01/27 07:07:42;;;;;;;70.63;30.97;;;;;;;;;;6239585;23;20222;-69
2022/01/27 07:10:10;;;;;;;73.43;31.80;;;;;;;;;;6216685;23;20184;-68
2022/01/27 07:12:43;;;;;;;107.73;38.67;;;;;;;;;;6216365;23;20180;-69
2022/01/27 07:15:10;;;;;;;143.43;46.27;;;;;;;;;;6226275;23;20169;-69
2022/01/27 07:17:38;;;;;;;95.50;34.40;;;;;;;;;;6216256;23;20278;-70
2022/01/27 07:20:06;;;;;;;95.30;38.57;;;;;;;;;;6240141;23;20180;-69
2022/01/27 07:22:35;;;;;;;84.50;35.50;;;;;;;;;;6216467;23;20218;-69
2022/01/27 07:25:04;;;;;;;90.27;34.83;;;;;;;;;;6216069;23;20268;-68
2022/01/27 07:27:32;;;;;;;110.83;39.50;;;;;;;;;;6216326;23;20230;-69
2022/01/27 07:29:59;;;;;;;158.87;47.97;;;;;;;;;;6216270;23;20255;-67
2022/01/27 07:32:27;;;;;;;105.83;36.67;;;;;;;;;;6216392;23;20180;-69
2022/01/27 07:34:55;;;;;;;92.87;33.97;;;;;;;;;;6215986;23;20186;-69
2022/01/27 07:37:22;;;;;;;122.23;42.10;;;;;;;;;;6216040;23;20643;-66
2022/01/27 07:39:50;;;;;;;118.70;43.03;;;;;;;;;;6214991;23;20184;-68
2022/01/27 07:42:17;;;;;;;72.27;33.07;;;;;;;;;;6216591;23;20180;-68
2022/01/27 07:44:44;;;;;;;79.80;32.03;;;;;;;;;;6216230;23;20184;-69
2022/01/27 07:47:12;;;;;;;79.77;33.97;;;;;;;;;;6216111;23;20180;-68
2022/01/27 07:49:39;;;;;;;65.67;30.07;;;;;;;;;;6216077;23;20251;-68
2022/01/27 07:52:12;;;;;;;70.90;29.87;;;;;;;;;;6216290;23;20179;-65
2022/01/27 07:54:39;;;;;;;64.40;28.83;;;;;;;;;;6216313;23;20184;-67
2022/01/27 07:57:06;;;;;;;63.97;30.40;;;;;;;;;;6216009;23;20250;-68
2022/01/27 07:59:34;;;;;;;68.90;29.57;;;;;;;;;;6216207;23;20250;-69
2022/01/27 08:02:01;;;;;;;114.20;43.97;;;;;;;;;;6215649;23;20616;-68
2022/01/27 08:04:29;;;;;;;94.53;37.90;;;;;;;;;;6215939;23;20180;-69
2022/01/27 08:07:00;;;;;;;72.53;31.20;;;;;;;;;;6216066;23;20180;-69
2022/01/27 08:09:27;;;;;;;77.00;32.97;;;;;;;;;;6217289;23;20168;-68
2022/01/27 08:11:55;;;;;;;73.93;31.40;;;;;;;;;;6218395;23;20180;-69
2022/01/27 08:14:22;;;;;;;76.07;31.67;;;;;;;;;;6218314;23;20285;-68
2022/01/27 08:16:49;;;;;;;95.43;34.77;;;;;;;;;;6217961;23;20237;-66
2022/01/27 08:19:17;;;;;;;97.77;36.77;;;;;;;;;;6218088;23;20183;-69
2022/01/27 08:21:44;;;;;;;91.27;35.83;;;;;;;;;;6217744;23;20180;-69
2022/01/27 08:24:11;;;;;;;86.93;35.13;;;;;;;;;;6215886;23;20515;-66
2022/01/27 08:26:42;;;;;;;91.17;36.83;;;;;;;;;;6217373;23;20204;-68
2022/01/27 08:34:29;;;;;;;90.07;37.03;;;;;;;;;;6217990;23;20172;-68
2022/01/27 08:36:57;;;;;;;81.20;31.33;;;;;;;;;;6227841;23;20188;-68
2022/01/27 08:39:25;;;;;;;93.20;36.97;;;;;;;;;;6218129;23;20180;-69
2022/01/27 08:41:52;;;;;;;93.43;36.80;;;;;;;;;;6217999;23;20180;-69
2022/01/27 08:44:20;;;;;;;100.43;37.87;;;;;;;;;;6217686;23;20628;-68
2022/01/27 08:46:47;;;;;;;79.97;33.10;;;;;;;;;;6217847;23;20231;-62
2022/01/27 08:49:16;;;;;;;93.23;36.50;;;;;;;;;;6217663;23;20551;-65
2022/01/27 08:51:43;;;;;;;86.60;35.07;;;;;;;;;;6217566;23;20180;-64
2022/01/27 08:54:11;;;;;;;76.30;33.70;;;;;;;;;;6217752;23;20198;-63
2022/01/27 08:56:38;;;;;;;78.40;33.27;;;;;;;;;;6217638;23;20180;-63
2022/01/27 08:59:05;;;;;;;102.80;36.03;;;;;;;;;;6217402;23;20208;-62
2022/01/27 09:01:33;;;;;;;117.67;39.17;;;;;;;;;;6217486;23;20187;-65
2022/01/27 09:04:00;;;;;;;105.40;37.27;;;;;;;;;;6217424;23;20201;-64
2022/01/27 09:06:28;;;;;;;70.17;31.43;;;;;;;;;;6217752;23;20226;-64
2022/01/27 09:08:57;;;;;;;87.83;33.13;;;;;;;;;;6217300;23;20691;-66
2022/01/27 09:11:25;;;;;;;61.43;27.60;;;;;;;;;;6217160;23;20180;-65
2022/01/27 09:13:55;;;;;;;84.07;33.87;;;;;;;;;;6217548;23;20248;-67
2022/01/27 09:16:26;;;;;;;91.10;33.57;;;;;;;;;;6217195;23;20210;-68
2022/01/27 09:19:04;;;;;;;81.10;30.83;;;;;;;;;;6217307;23;20196;-68
2022/01/27 09:21:42;;;;;;;80.43;34.43;;;;;;;;;;6217281;23;20645;-68
2022/01/27 09:24:15;;;;;;;78.10;33.47;;;;;;;;;;6217518;23;20172;-67
2022/01/27 09:29:16;;;;;;;89.00;43.87;;;;;;;;;;6217563;23;20168;-69
2022/01/27 09:31:45;;;;;;;91.40;35.27;;;;;;;;;;6217501;23;20184;-68
2022/01/27 09:34:13;;;;;;;108.07;37.67;;;;;;;;;;6217371;23;20187;-67
2022/01/27 09:36:40;;;;;;;105.60;41.23;;;;;;;;;;6217226;23;20203;-67
2022/01/27 09:39:08;;;;;;;90.13;34.83;;;;;;;;;;6216645;23;20705;-69
2022/01/27 09:41:40;;;;;;;89.97;31.33;;;;;;;;;;6227005;23;20214;-69
2022/01/27 09:44:10;;;;;;;88.60;35.20;;;;;;;;;;6215923;23;20211;-69
2022/01/27 09:46:42;;;;;;;103.87;40.53;;;;;;;;;;6227438;23;20168;-69
2022/01/27 09:49:15;;;;;;;129.97;62.70;;;;;;;;;;6217221;23;20172;-69
2022/01/27 09:51:47;;;;;;;81.00;34.80;;;;;;;;;;6226879;23;20164;-69
2022/01/27 09:54:16;;;;;;;83.30;36.60;;;;;;;;;;6217047;23;20168;-68
2022/01/27 09:56:44;;;;;;;70.17;32.57;;;;;;;;;;6217039;23;20235;-68
2022/01/27 09:59:15;;;;;;;60.50;30.10;;;;;;;;;;6216722;23;20670;-69
2022/01/27 10:01:58;;;;;;;94.33;38.70;;;;;;;;;;6217084;23;20230;-68
2022/01/27 10:04:43;;;;;;;93.80;35.93;;;;;;;;;;6226696;23;20490;-68
2022/01/27 10:07:16;;;;;;;92.50;37.63;;;;;;;;;;6217057;23;20169;-68
2022/01/27 10:10:05;;;;;;;242.77;72.07;;;;;;;;;;6216696;23;20172;-69
2022/01/27 10:12:37;;;;;;;95.20;38.27;;;;;;;;;;6227309;23;20175;-69
2022/01/27 10:15:11;;;;;;;64.03;30.27;;;;;;;;;;6225494;23;20165;-68
2022/01/27 10:18:13;;;;;;;88.17;35.03;;;;;;;;;;6216984;23;20216;-69
2022/01/27 10:20:49;;;;;;;78.10;31.67;;;;;;;;;;6216565;23;20509;-68
2022/01/27 10:23:21;;;;;;;82.30;32.23;;;;;;;;;;6215420;23;20195;-69
2022/01/27 10:25:56;;;;;;;86.40;34.63;;;;;;;;;;6216453;23;20254;-68
2022/01/27 10:28:43;;;;;;;84.17;36.97;;;;;;;;;;6216935;23;20167;-68
2022/01/27 10:31:19;;;;;;;91.87;42.07;;;;;;;;;;6216569;23;20172;-69
2022/01/27 10:34:01;;;;;;;108.90;42.07;;;;;;;;;;6216871;23;20218;-69
2022/01/27 10:36:44;;;;;;;99.07;41.00;;;;;;;;;;6216764;23;20227;-68
2022/01/27 10:39:15;;;;;;;79.47;36.27;;;;;;;;;;6226397;23;20192;-68
2022/01/27 10:41:57;;;;;;;88.77;38.87;;;;;;;;;;6250223;23;20718;-69
2022/01/27 10:44:33;;;;;;;89.10;39.53;;;;;;;;;;6215233;23;20536;-68
2022/01/27 10:47:31;;;;;;;90.60;39.73;;;;;;;;;;6216409;23;20246;-69
2022/01/27 10:50:01;;;;;;;95.13;40.10;;;;;;;;;;6198258;23;20191;-68
2022/01/27 10:52:41;;;;;;;102.23;51.17;;;;;;;;;;6215300;23;20168;-68
2022/01/27 10:55:11;;;;;;;101.13;42.27;;;;;;;;;;6216585;23;20175;-67
2022/01/27 10:57:39;;;;;;;88.10;40.97;;;;;;;;;;6216609;23;20196;-68
2022/01/27 11:00:14;;;;;;;88.17;39.20;;;;;;;;;;6216487;23;20180;-68
2022/01/27 11:02:51;;;;;;;87.40;37.50;;;;;;;;;;6216535;23;20174;-69
2022/01/27 11:05:20;;;;;;;100.60;40.67;;;;;;;;;;6216722;23;20191;-68
2022/01/27 11:07:48;;;;;;;148.53;51.83;;;;;;;;;;6216230;23;20176;-69
2022/01/27 11:10:16;;;;;;;98.37;41.33;;;;;;;;;;6216567;23;20180;-69
2022/01/27 11:12:44;;;;;;;150.80;59.53;;;;;;;;;;6216495;23;20627;-68
2022/01/27 11:15:13;;;;;;;120.20;47.77;;;;;;;;;;6216395;23;20181;-68
2022/01/27 11:17:41;;;;;;;92.40;41.60;;;;;;;;;;6240011;23;20207;-67
2022/01/27 11:20:38;;;;;;;94.23;43.07;;;;;;;;;;6226118;23;20172;-68
2022/01/27 11:25:52;;;;;;;106.10;43.57;;;;;;;;;;6218494;23;20212;-68
2022/01/27 11:28:23;;;;;;;103.93;47.63;;;;;;;;;;6224823;23;20169;-69
2022/01/27 11:31:07;;;;;;;132.60;51.60;;;;;;;;;;6214863;23;20173;-68
2022/01/27 11:33:36;;;;;;;105.43;47.13;;;;;;;;;;6215902;23;20176;-68
2022/01/27 11:36:09;;;;;;;132.47;53.70;;;;;;;;;;6216122;23;20179;-68
2022/01/27 11:38:42;;;;;;;118.63;49.23;;;;;;;;;;6216133;23;20196;-68
2022/01/27 11:41:38;;;;;;;141.40;55.20;;;;;;;;;;6215962;23;20604;-68
2022/01/27 11:44:20;;;;;;;109.37;47.73;;;;;;;;;;6216120;23;20203;-68
2022/01/27 11:47:08;;;;;;;132.63;53.60;;;;;;;;;;6215765;23;20596;-66
2022/01/27 11:49:55;;;;;;;151.20;56.33;;;;;;;;;;6216224;23;20160;-68
2022/01/27 11:52:23;;;;;;;146.47;52.73;;;;;;;;;;6225512;23;20164;-67
2022/01/27 11:54:50;;;;;;;115.57;51.50;;;;;;;;;;6216097;23;20180;-68
2022/01/27 11:57:37;;;;;;;150.53;55.53;;;;;;;;;;6214442;23;20186;-68
2022/01/27 12:00:38;;;;;;;152.93;60.13;;;;;;;;;;6214676;23;20172;-67
2022/01/27 12:03:10;;;;;;;126.27;51.43;;;;;;;;;;6213455;23;20183;-68
2022/01/27 12:05:42;;;;;;;121.00;50.83;;;;;;;;;;6215700;23;20189;-63
2022/01/27 12:08:12;;;;;;;124.07;51.50;;;;;;;;;;6216457;23;20207;-65
2022/01/27 12:11:08;;;;;;;125.73;54.70;;;;;;;;;;6216223;23;20168;-69
2022/01/27 12:13:48;;;;;;;186.30;67.20;;;;;;;;;;6214517;23;20175;-69
2022/01/27 12:19:03;;;;;;;139.23;60.43;;;;;;;;;;6216052;23;20196;-69
2022/01/27 12:21:39;;;;;;;121.60;51.37;;;;;;;;;;6225838;23;20174;-68
2022/01/27 12:24:18;;;;;;;110.10;50.80;;;;;;;;;;6239490;23;20198;-68
2022/01/27 12:26:46;;;;;;;110.90;49.27;;;;;;;;;;6215812;23;20168;-68
2022/01/27 12:29:27;;;;;;;117.33;50.83;;;;;;;;;;6214459;23;20180;-68
2022/01/27 12:31:56;;;;;;;122.33;50.23;;;;;;;;;;6215879;23;20199;-69
2022/01/27 12:34:23;;;;;;;172.43;62.03;;;;;;;;;;6215789;23;20180;-68
2022/01/27 12:37:05;;;;;;;105.43;48.43;;;;;;;;;;6216007;23;20184;-68
2022/01/27 12:39:39;;;;;;;126.83;51.37;;;;;;;;;;6215955;23;20196;-69
2022/01/27 12:42:13;;;;;;;118.07;50.63;;;;;;;;;;6215730;23;20176;-68
2022/01/27 12:44:52;;;;;;;133.87;54.30;;;;;;;;;;6209531;23;20345;-68
2022/01/27 12:47:19;;;;;;;161.50;58.17;;;;;;;;;;6215115;23;20658;-67
2022/01/27 12:50:08;;;;;;;138.60;54.27;;;;;;;;;;6215222;23;20204;-67
2022/01/27 12:52:40;;;;;;;118.30;51.33;;;;;;;;;;6215294;23;20200;-69
2022/01/27 12:55:10;;;;;;;115.33;49.77;;;;;;;;;;6219387;23;20235;-68
2022/01/27 12:58:06;;;;;;;132.03;58.23;;;;;;;;;;6238577;23;20227;-69
2022/01/27 13:00:41;;;;;;;112.53;48.13;;;;;;;;;;6218442;23;20254;-66
2022/01/27 13:03:10;;;;;;;139.53;54.10;;;;;;;;;;6217134;23;20290;-64
2022/01/27 13:05:44;;;;;;;148.67;54.53;;;;;;;;;;6240799;23;20204;-75
2022/01/27 13:08:16;;;;;;;105.93;49.27;;;;;;;;;;6219926;23;20218;-73
2022/01/27 13:10:54;;;;;;;109.60;50.87;;;;;;;;;;6191648;23;20259;-71
2022/01/27 13:13:28;;;;;;;126.17;53.80;;;;;;;;;;6216171;23;20287;-70
2022/01/27 13:16:03;;;;;;;142.73;56.00;;;;;;;;;;6216688;23;20691;-71
2022/01/27 13:21:22;;;;;;;115.23;50.73;;;;;;;;;;6215768;23;20521;-74
2022/01/27 13:24:16;;;;;;;96.33;46.40;;;;;;;;;;6225778;23;20548;-73
2022/01/27 13:26:45;;;;;;;88.37;44.20;;;;;;;;;;6217381;23;20547;-71
2022/01/27 13:29:19;;;;;;;93.27;42.77;;;;;;;;;;6215485;23;20706;-72
2022/01/27 13:31:47;;;;;;;115.50;49.53;;;;;;;;;;6210007;23;20204;-71
2022/01/27 13:34:15;;;;;;;132.97;49.80;;;;;;;;;;6216615;23;20200;-74
2022/01/27 13:36:56;;;;;;;100.83;45.77;;;;;;;;;;6213446;23;20204;-74
2022/01/27 13:41:55;;;;;;;83.70;40.03;;;;;;;;;;6215968;23;20283;-71
2022/01/27 13:44:23;;;;;;;86.83;42.90;;;;;;;;;;6215822;23;20208;-71
2022/01/27 13:46:56;;;;;;;134.80;53.13;;;;;;;;;;6214621;23;20263;-65
2022/01/27 13:49:29;;;;;;;98.67;43.83;;;;;;;;;;6189538;23;20204;-68
2022/01/27 13:52:17;;;;;;;99.90;43.17;;;;;;;;;;6238960;23;20204;-67
2022/01/27 13:54:49;;;;;;;90.50;42.47;;;;;;;;;;6190428;23;20210;-69
2022/01/27 13:57:21;;;;;;;84.77;41.63;;;;;;;;;;6190450;23;20196;-69
2022/01/27 14:00:09;;;;;;;123.47;55.63;;;;;;;;;;6190160;23;20215;-67
2022/01/27 14:02:47;;;;;;;76.20;40.33;;;;;;;;;;6192676;23;20213;-68
2022/01/27 14:05:18;;;;;;;66.50;37.53;;;;;;;;;;6218179;23;20283;-71
2022/01/27 14:07:57;;;;;;;65.33;36.67;;;;;;;;;;6214852;23;20204;-64
2022/01/27 14:10:37;;;;;;;69.07;35.83;;;;;;;;;;6214388;23;20203;-67
2022/01/27 14:13:16;;;;;;;58.60;34.30;;;;;;;;;;6215457;23;20343;-71
2022/01/27 14:15:54;;;;;;;60.40;34.67;;;;;;;;;;6214125;23;20215;-69
2022/01/27 14:18:27;;;;;;;62.37;35.10;;;;;;;;;;6217521;23;20514;-66
2022/01/27 14:20:55;;;;;;;66.23;36.53;;;;;;;;;;6214032;23;20277;-65
2022/01/27 14:23:56;;;;;;;66.90;38.87;;;;;;;;;;6215140;23;20200;-67
2022/01/27 14:29:19;;;;;;;59.90;34.00;;;;;;;;;;6214522;23;20643;-70
2022/01/27 14:31:48;;;;;;;61.57;33.17;;;;;;;;;;6188617;23;20200;-70
2022/01/27 14:34:28;;;;;;;67.80;37.27;;;;;;;;;;6214967;23;20239;-67
2022/01/27 14:36:55;;;;;;;69.53;35.77;;;;;;;;;;6213824;23;20211;-67
2022/01/27 14:39:23;;;;;;;71.50;37.83;;;;;;;;;;6216550;23;20223;-69
2022/01/27 14:41:50;;;;;;;73.90;38.47;;;;;;;;;;6213948;23;20535;-69
2022/01/27 14:44:20;;;;;;;62.23;38.57;;;;;;;;;;6238863;23;20199;-66
2022/01/27 14:46:49;;;;;;;71.13;37.17;;;;;;;;;;6216046;23;20214;-68
2022/01/27 14:49:17;;;;;;;78.93;39.07;;;;;;;;;;6215522;23;20203;-66
2022/01/27 14:51:45;;;;;;;68.17;35.07;;;;;;;;;;6213826;23;20207;-69
2022/01/27 14:54:13;;;;;;;67.33;36.03;;;;;;;;;;6190131;23;20214;-66
2022/01/27 14:56:40;;;;;;;70.93;35.80;;;;;;;;;;6216000;23;20208;-63
2022/01/27 14:59:08;;;;;;;63.03;34.83;;;;;;;;;;6213957;23;20752;-64
2022/01/27 15:01:36;;;;;;;62.17;33.83;;;;;;;;;;6214078;23;20234;-63
2022/01/27 15:04:04;;;;;;;100.50;41.13;;;;;;;;;;6214847;23;20721;-66
2022/01/27 15:06:32;;;;;;;66.83;34.67;;;;;;;;;;6214235;23;20204;-67
2022/01/27 15:08:59;;;;;;;63.87;34.30;;;;;;;;;;6214479;23;20227;-63
2022/01/27 15:11:26;;;;;;;55.40;30.60;;;;;;;;;;6206778;23;20231;-73
2022/01/27 15:18:48;;;;;;;66.47;36.50;;;;;;;;;;6215089;23;20211;-65
2022/01/27 15:19:48;;;;;;;74.83;34.90;;;;;;;;;;6216075;23;20218;-64
2022/01/27 15:22:15;;;;;;;95.80;39.43;;;;;;;;;;6215504;23;20208;-63
2022/01/27 15:24:43;;;;;;;93.57;39.93;;;;;;;;;;6215742;23;20236;-64
2022/01/27 15:27:11;;;;;;;59.57;34.37;;;;;;;;;;6215535;23;20212;-65
2022/01/27 15:29:41;;;;;;;65.17;29.77;;;;;;;;;;6214812;23;20203;-71
2022/01/27 15:32:09;;;;;;;68.10;32.73;;;;;;;;;;6213849;23;20230;-74
2022/01/27 15:34:36;;;;;;;72.83;33.53;;;;;;;;;;6214291;23;20228;-70
2022/01/27 15:37:03;;;;;;;63.47;29.00;;;;;;;;;;6213522;23;20204;-65
2022/01/27 15:39:30;;;;;;;59.20;27.87;;;;;;;;;;6215622;23;20221;-70
2022/01/27 15:41:58;;;;;;;64.37;30.97;;;;;;;;;;6215184;23;20204;-71
2022/01/27 15:44:25;;;;;;;56.17;27.80;;;;;;;;;;6215158;23;20204;-69